Time;durP1;ratioP1;P1;durP2;ratioP2;P2;SDS_P1;SDS_P2;PMS_P1;PMS_P2;Temp;Humidity;BMP_temperature;BMP_pressure;BME280_temperature;BME280_humidity;BME280_pressure;Samples;Min_cycle;Max_cycle;Signal;HPM_P1;HPM_P2
2022/12/09 00:01:13;;;;;;;37.20;19.83;;;5.00;99.90;;;;;;5030270;28;20377;-73
2022/12/09 00:03:40;;;;;;;36.22;20.13;;;5.00;99.90;;;;;;5035317;28;20019;-75
2022/12/09 00:06:26;;;;;;;33.42;20.00;;;4.90;99.90;;;;;;5029021;28;20040;-73
2022/12/09 00:08:53;;;;;;;34.35;18.73;;;4.90;99.90;;;;;;5031756;28;20048;-73
2022/12/09 00:11:22;;;;;;;39.47;20.08;;;4.90;99.90;;;;;;5028490;28;20030;-72
2022/12/09 00:13:55;;;;;;;38.72;19.30;;;4.80;99.90;;;;;;5027351;28;20028;-73
2022/12/09 00:16:24;;;;;;;36.65;19.38;;;4.80;99.90;;;;;;5029424;28;20564;-72
2022/12/09 00:18:50;;;;;;;38.03;19.90;;;4.90;99.90;;;;;;5022011;28;20036;-73
2022/12/09 00:21:31;;;;;;;36.78;19.20;;;5.00;99.90;;;;;;5029209;28;20842;-71
2022/12/09 00:23:59;;;;;;;34.00;20.52;;;5.00;99.90;;;;;;5030044;28;20025;-72
2022/12/09 00:26:28;;;;;;;37.33;19.55;;;5.00;99.90;;;;;;5030722;28;20152;-72
2022/12/09 00:28:57;;;;;;;43.25;21.00;;;5.10;99.90;;;;;;5026175;28;20037;-78
2022/12/09 00:31:25;;;;;;;42.58;20.80;;;5.00;99.90;;;;;;5026949;28;20057;-76
2022/12/09 00:33:54;;;;;;;38.75;20.58;;;5.00;99.90;;;;;;5028188;28;20038;-74
2022/12/09 00:36:21;;;;;;;44.92;21.17;;;5.00;99.90;;;;;;5027655;28;20017;-75
2022/12/09 00:38:48;;;;;;;41.35;21.55;;;5.00;99.90;;;;;;5027911;28;20029;-73
2022/12/09 00:41:15;;;;;;;41.00;21.98;;;4.90;99.90;;;;;;5026692;28;20029;-73
2022/12/09 00:43:43;;;;;;;46.83;22.00;;;4.90;99.90;;;;;;5029885;28;20021;-76
2022/12/09 00:46:10;;;;;;;51.35;21.98;;;4.80;99.90;;;;;;5034197;28;20025;-74
2022/12/09 00:48:37;;;;;;;46.80;22.20;;;4.80;99.90;;;;;;5030772;28;20033;-73
2022/12/09 00:51:04;;;;;;;45.38;23.20;;;4.70;99.90;;;;;;5024970;28;20087;-73
2022/12/09 00:53:33;;;;;;;41.60;21.95;;;4.80;99.90;;;;;;5027889;28;20121;-73
2022/12/09 00:56:01;;;;;;;47.85;22.90;;;4.80;99.90;;;;;;5026170;28;20018;-72
2022/12/09 00:58:29;;;;;;;46.55;22.80;;;4.90;99.90;;;;;;5024701;28;20121;-72
2022/12/09 01:00:57;;;;;;;40.85;21.95;;;5.00;99.90;;;;;;5025979;28;20030;-72
2022/12/09 01:03:25;;;;;;;47.50;23.60;;;4.90;99.90;;;;;;5024406;28;20104;-73
2022/12/09 01:05:54;;;;;;;44.42;22.05;;;4.90;99.90;;;;;;5025337;28;20045;-73
2022/12/09 01:08:25;;;;;;;43.97;22.27;;;4.90;99.90;;;;;;5031235;28;20049;-70
2022/12/09 01:10:51;;;;;;;48.53;23.20;;;4.90;99.90;;;;;;5026832;28;20026;-71
2022/12/09 01:13:16;;;;;;;43.65;22.75;;;4.90;99.90;;;;;;5025530;28;20118;-74
2022/12/09 01:15:42;;;;;;;45.38;23.55;;;4.80;99.90;;;;;;5043321;28;20334;-73
2022/12/09 01:18:10;;;;;;;49.45;24.52;;;4.90;99.90;;;;;;5023784;28;20040;-74
2022/12/09 01:20:36;;;;;;;48.90;22.95;;;4.80;99.90;;;;;;5021776;28;20026;-70
2022/12/09 01:23:04;;;;;;;46.00;23.77;;;4.80;99.90;;;;;;5026004;28;20018;-74
2022/12/09 01:25:29;;;;;;;48.22;24.15;;;4.80;99.90;;;;;;5024705;28;20133;-73
2022/12/09 01:27:55;;;;;;;45.80;24.05;;;4.80;99.90;;;;;;5026094;28;20103;-73
2022/12/09 01:30:21;;;;;;;51.40;24.50;;;4.80;99.90;;;;;;5025879;28;20026;-72
2022/12/09 01:32:46;;;;;;;53.33;25.42;;;4.80;99.90;;;;;;5024428;28;20025;-72
2022/12/09 01:35:12;;;;;;;57.72;27.95;;;4.80;99.90;;;;;;5024722;28;20056;-71
2022/12/09 01:37:38;;;;;;;54.35;25.20;;;4.70;99.90;;;;;;5024187;28;20105;-72
2022/12/09 01:40:09;;;;;;;58.35;25.67;;;4.70;99.90;;;;;;5021071;28;20104;-72
2022/12/09 01:42:37;;;;;;;54.03;26.48;;;4.80;99.90;;;;;;5020060;28;20553;-72
2022/12/09 01:45:20;;;;;;;50.97;24.20;;;4.80;99.90;;;;;;5024490;28;20033;-73
2022/12/09 01:48:07;;;;;;;57.42;25.63;;;4.90;99.90;;;;;;5027499;28;20477;-73
2022/12/09 01:50:35;;;;;;;54.30;25.85;;;5.00;99.90;;;;;;5025148;28;20036;-71
2022/12/09 01:53:01;;;;;;;54.92;25.75;;;5.00;99.90;;;;;;5026036;28;20522;-69
2022/12/09 01:55:29;;;;;;;54.95;25.70;;;5.00;99.90;;;;;;5024759;28;20037;-72
2022/12/09 01:57:57;;;;;;;55.63;24.30;;;5.00;99.90;;;;;;5024926;28;20033;-75
2022/12/09 02:00:23;;;;;;;52.25;25.23;;;5.10;99.90;;;;;;5027276;28;20064;-72
2022/12/09 02:02:54;;;;;;;54.40;25.15;;;5.10;99.90;;;;;;5026769;28;20025;-72
2022/12/09 02:05:20;;;;;;;55.63;26.17;;;5.10;99.90;;;;;;5024169;28;20451;-74
2022/12/09 02:07:46;;;;;;;50.95;25.77;;;5.10;99.90;;;;;;5025184;28;20079;-71
2022/12/09 02:10:13;;;;;;;51.40;25.88;;;5.10;99.90;;;;;;5025309;28;20029;-73
2022/12/09 02:12:45;;;;;;;45.53;24.80;;;5.10;99.90;;;;;;5026802;28;20052;-72
2022/12/09 02:15:41;;;;;;;61.13;26.20;;;5.10;99.90;;;;;;5030590;28;20018;-73
2022/12/09 02:18:29;;;;;;;63.13;26.20;;;5.10;99.90;;;;;;5029810;28;20061;-71
2022/12/09 02:21:04;;;;;;;58.25;26.65;;;5.20;99.90;;;;;;5030489;28;20029;-70
2022/12/09 02:23:43;;;;;;;54.95;26.17;;;5.10;99.90;;;;;;5028821;28;20040;-74
2022/12/09 02:26:39;;;;;;;52.17;25.13;;;5.10;99.90;;;;;;5029983;28;20112;-73
2022/12/09 02:29:40;;;;;;;53.67;25.15;;;5.20;99.90;;;;;;5013688;28;20473;-73
2022/12/09 02:32:37;;;;;;;53.30;24.98;;;5.20;99.90;;;;;;5031081;28;20036;-74
2022/12/09 02:35:12;;;;;;;52.53;24.67;;;5.20;99.90;;;;;;5026382;28;20025;-71
2022/12/09 02:37:55;;;;;;;54.47;25.10;;;5.20;99.90;;;;;;5028055;28;20109;-72
2022/12/09 02:40:32;;;;;;;46.78;22.88;;;5.20;99.90;;;;;;5029574;28;20113;-69
2022/12/09 02:43:01;;;;;;;52.03;24.85;;;5.10;99.90;;;;;;5030542;28;20037;-68
2022/12/09 02:45:32;;;;;;;51.22;24.00;;;5.20;99.90;;;;;;5028430;28;20025;-70
2022/12/09 02:48:00;;;;;;;50.78;26.10;;;5.20;99.90;;;;;;5028458;28;20041;-74
2022/12/09 02:50:29;;;;;;;54.78;25.13;;;5.20;99.90;;;;;;5027757;28;20025;-71
2022/12/09 02:52:57;;;;;;;58.10;25.63;;;5.20;99.90;;;;;;5029348;28;20390;-71
2022/12/09 02:55:23;;;;;;;49.83;24.45;;;5.20;99.90;;;;;;5027321;28;20100;-72
2022/12/09 02:57:58;;;;;;;48.55;24.55;;;5.20;99.90;;;;;;5028707;28;20030;-71
2022/12/09 03:00:29;;;;;;;50.10;24.67;;;5.20;99.90;;;;;;5026122;28;20045;-73
2022/12/09 03:03:00;;;;;;;51.63;26.40;;;5.20;99.90;;;;;;5026465;28;20029;-73
2022/12/09 03:05:33;;;;;;;56.33;24.58;;;5.20;99.90;;;;;;5030293;28;20104;-73
2022/12/09 03:08:37;;;;;;;54.67;25.42;;;5.20;99.90;;;;;;5028251;28;20052;-75
2022/12/09 03:11:10;;;;;;;53.13;26.35;;;5.20;99.90;;;;;;5027824;28;20739;-73
2022/12/09 03:14:02;;;;;;;52.33;25.98;;;5.20;99.90;;;;;;5029797;28;20841;-73
2022/12/09 03:16:46;;;;;;;61.88;26.05;;;5.20;99.90;;;;;;5023097;28;20025;-72
2022/12/09 03:19:30;;;;;;;48.60;25.02;;;5.30;99.90;;;;;;5028279;28;20032;-72
2022/12/09 03:21:58;;;;;;;55.63;25.25;;;5.30;99.90;;;;;;5027192;28;20029;-72
2022/12/09 03:24:32;;;;;;;57.67;25.08;;;5.20;99.90;;;;;;5023170;28;20025;-72
2022/12/09 03:27:01;;;;;;;52.10;25.33;;;5.20;99.90;;;;;;5026237;28;20087;-72
2022/12/09 03:29:32;;;;;;;49.72;24.60;;;5.20;99.90;;;;;;5027169;28;20767;-73
2022/12/09 03:31:58;;;;;;;54.90;25.35;;;5.10;99.90;;;;;;5030493;28;20574;-71
2022/12/09 03:34:32;;;;;;;59.28;25.80;;;5.10;99.90;;;;;;5034737;28;20033;-72
2022/12/09 03:37:00;;;;;;;57.75;24.33;;;5.10;99.90;;;;;;5034441;28;20030;-71
2022/12/09 03:39:30;;;;;;;52.88;25.63;;;5.10;99.90;;;;;;5029613;28;20059;-71
2022/12/09 03:42:02;;;;;;;62.05;25.30;;;5.00;99.90;;;;;;5007924;28;20033;-72
2022/12/09 03:44:36;;;;;;;52.23;25.33;;;4.90;99.90;;;;;;5032669;28;20175;-73
2022/12/09 03:47:04;;;;;;;55.95;25.80;;;4.90;99.90;;;;;;5027513;28;20693;-70
2022/12/09 03:49:31;;;;;;;53.10;24.58;;;4.80;99.90;;;;;;5027092;28;20021;-73
2022/12/09 03:52:06;;;;;;;55.63;24.45;;;4.70;99.90;;;;;;5026138;28;20033;-70
2022/12/09 03:54:43;;;;;;;57.05;25.98;;;4.70;99.90;;;;;;5045968;28;20026;-72
2022/12/09 03:57:13;;;;;;;48.45;24.92;;;4.70;99.90;;;;;;5026223;28;20763;-73
2022/12/09 03:59:41;;;;;;;58.97;25.23;;;4.70;99.90;;;;;;5028876;28;20095;-71
2022/12/09 04:02:06;;;;;;;55.08;25.40;;;4.70;99.90;;;;;;5028279;28;20482;-73
2022/12/09 04:04:39;;;;;;;56.65;26.02;;;4.70;99.90;;;;;;5027834;28;20091;-73
2022/12/09 04:07:07;;;;;;;65.75;24.80;;;4.70;99.90;;;;;;5027139;28;20036;-72
2022/12/09 04:09:35;;;;;;;55.83;25.42;;;4.70;99.90;;;;;;5024994;28;20105;-70
2022/12/09 04:12:01;;;;;;;59.47;25.30;;;4.70;99.90;;;;;;5025002;28;20042;-72
2022/12/09 04:14:27;;;;;;;58.25;25.35;;;4.80;99.90;;;;;;5026107;28;20029;-73
2022/12/09 04:16:53;;;;;;;51.97;24.13;;;4.70;99.90;;;;;;5023649;28;20112;-72
2022/12/09 04:19:18;;;;;;;60.92;26.20;;;4.70;99.90;;;;;;5024806;28;20125;-74
2022/12/09 04:21:48;;;;;;;60.58;26.48;;;4.70;99.90;;;;;;5026600;28;20087;-74
2022/12/09 04:24:14;;;;;;;59.03;25.98;;;4.70;99.90;;;;;;5027877;28;20057;-72
2022/12/09 04:26:40;;;;;;;55.63;25.50;;;4.70;99.90;;;;;;5026424;28;20612;-72
2022/12/09 04:29:05;;;;;;;56.55;26.08;;;4.80;99.90;;;;;;5026352;28;20354;-72
2022/12/09 04:31:31;;;;;;;61.55;25.70;;;4.80;99.90;;;;;;5025052;28;20405;-72
2022/12/09 04:33:57;;;;;;;58.97;24.80;;;4.70;99.90;;;;;;5024222;28;20030;-71
2022/12/09 04:36:22;;;;;;;56.65;25.40;;;4.60;99.90;;;;;;5025741;28;20030;-73
2022/12/09 04:38:48;;;;;;;59.08;25.63;;;4.70;99.90;;;;;;5024719;28;20513;-73
2022/12/09 04:41:17;;;;;;;62.95;26.08;;;4.70;99.90;;;;;;5028268;28;20033;-70
2022/12/09 04:43:43;;;;;;;60.10;25.95;;;4.70;99.90;;;;;;5029757;28;20064;-74
2022/12/09 04:46:12;;;;;;;59.63;26.27;;;4.60;99.90;;;;;;5028147;28;20541;-73
2022/12/09 04:48:40;;;;;;;59.17;25.92;;;4.60;99.90;;;;;;5025404;28;20122;-73
2022/12/09 04:51:10;;;;;;;57.13;26.13;;;4.60;99.90;;;;;;5026817;28;20435;-73
2022/12/09 04:53:37;;;;;;;65.05;26.30;;;4.50;99.90;;;;;;5024867;28;20033;-73
2022/12/09 04:56:14;;;;;;;54.33;26.10;;;4.50;99.90;;;;;;5024571;28;20025;-72
2022/12/09 04:58:43;;;;;;;57.65;24.73;;;4.50;99.90;;;;;;5024422;28;20040;-72
2022/12/09 05:01:13;;;;;;;56.15;25.70;;;4.50;99.90;;;;;;5024324;28;20462;-72
2022/12/09 05:03:41;;;;;;;63.95;27.00;;;4.60;99.90;;;;;;5025458;28;20179;-71
2022/12/09 05:06:11;;;;;;;55.47;24.92;;;4.60;99.90;;;;;;5024698;28;20681;-72
2022/12/09 05:08:37;;;;;;;58.20;24.52;;;4.60;99.90;;;;;;5028940;28;20370;-73
2022/12/09 05:11:03;;;;;;;59.55;25.60;;;4.60;99.90;;;;;;5027023;28;20512;-76
2022/12/09 05:13:30;;;;;;;65.38;27.95;;;4.50;99.90;;;;;;5023340;28;20029;-76
2022/12/09 05:16:05;;;;;;;52.15;22.90;;;4.50;99.90;;;;;;5025025;28;20326;-72
2022/12/09 05:18:31;;;;;;;56.08;23.52;;;4.50;99.90;;;;;;5024176;28;20060;-73
2022/12/09 05:20:56;;;;;;;63.40;25.33;;;4.50;99.90;;;;;;5023483;28;20053;-73
2022/12/09 05:23:27;;;;;;;65.25;26.30;;;4.50;99.90;;;;;;5024661;28;20022;-72
2022/12/09 05:25:54;;;;;;;59.95;26.77;;;4.50;99.90;;;;;;5025590;28;20028;-73
2022/12/09 05:28:20;;;;;;;61.78;26.50;;;4.50;99.90;;;;;;5023835;28;20541;-73
2022/12/09 05:30:47;;;;;;;54.67;25.08;;;4.50;99.90;;;;;;5026515;28;20106;-71
2022/12/09 05:33:13;;;;;;;59.33;26.42;;;4.60;99.90;;;;;;5023898;28;20330;-72
2022/12/09 05:35:42;;;;;;;63.80;26.40;;;4.60;99.90;;;;;;5027063;28;20025;-74
2022/12/09 05:38:08;;;;;;;57.92;24.50;;;4.60;99.90;;;;;;5025995;28;20021;-74
2022/12/09 05:40:36;;;;;;;62.15;25.20;;;4.50;99.90;;;;;;5023972;28;20013;-72
2022/12/09 05:43:02;;;;;;;57.95;25.95;;;4.50;99.90;;;;;;5022570;28;20030;-72
2022/12/09 05:45:27;;;;;;;67.13;24.38;;;4.50;99.90;;;;;;5024165;28;20028;-73
2022/12/09 05:47:53;;;;;;;60.60;24.10;;;4.50;99.90;;;;;;5024744;28;20030;-72
2022/12/09 05:50:19;;;;;;;59.30;24.48;;;4.50;99.90;;;;;;5023317;28;20098;-73
2022/12/09 05:52:46;;;;;;;57.42;23.60;;;4.50;99.90;;;;;;5018603;28;20029;-73
2022/12/09 05:55:14;;;;;;;51.30;24.27;;;4.40;99.90;;;;;;5027216;28;20037;-71
2022/12/09 05:57:40;;;;;;;53.00;23.20;;;4.40;99.90;;;;;;5027677;28;20061;-68
2022/12/09 06:00:09;;;;;;;57.05;22.80;;;4.40;99.90;;;;;;5024789;28;20064;-72
2022/12/09 06:02:37;;;;;;;52.05;23.25;;;4.30;99.90;;;;;;5026908;28;20747;-73
2022/12/09 06:05:06;;;;;;;54.30;23.40;;;4.30;99.90;;;;;;5024873;28;20021;-74
2022/12/09 06:07:33;;;;;;;56.72;23.70;;;4.40;99.90;;;;;;5024694;28;20022;-73
2022/12/09 06:09:58;;;;;;;57.38;23.23;;;4.40;99.90;;;;;;5023457;28;20017;-69
2022/12/09 06:12:24;;;;;;;57.08;24.48;;;4.40;99.90;;;;;;5025022;28;20092;-72
2022/12/09 06:14:50;;;;;;;51.97;23.17;;;4.30;99.90;;;;;;5025309;28;20080;-73
2022/12/09 06:17:15;;;;;;;50.10;22.83;;;4.40;99.90;;;;;;5027774;28;20033;-73
2022/12/09 06:19:41;;;;;;;56.17;24.70;;;4.40;99.90;;;;;;5027892;28;20037;-73
2022/12/09 06:22:07;;;;;;;56.67;25.60;;;4.40;99.90;;;;;;5028908;28;20049;-73
2022/12/09 06:24:34;;;;;;;54.65;24.17;;;4.40;99.90;;;;;;5028657;28;20351;-75
2022/12/09 06:27:02;;;;;;;51.22;23.80;;;4.40;99.90;;;;;;5029707;28;20443;-76
2022/12/09 06:29:28;;;;;;;49.42;19.10;;;4.40;99.90;;;;;;5030951;28;20029;-72
2022/12/09 06:31:56;;;;;;;34.28;16.52;;;4.40;99.90;;;;;;5028700;28;20079;-73
2022/12/09 06:34:22;;;;;;;32.97;15.13;;;4.50;99.90;;;;;;5022856;28;20021;-72
2022/12/09 06:36:50;;;;;;;38.42;17.63;;;4.50;99.90;;;;;;5026657;28;20542;-74
2022/12/09 06:39:15;;;;;;;38.80;16.80;;;4.50;99.90;;;;;;5027343;28;20025;-72
2022/12/09 06:41:42;;;;;;;36.67;15.30;;;4.50;99.90;;;;;;5029175;28;20466;-74
2022/12/09 06:44:09;;;;;;;34.08;14.57;;;4.50;99.90;;;;;;5023428;28;20092;-72
2022/12/09 06:46:37;;;;;;;35.42;16.25;;;4.50;99.90;;;;;;5025247;28;20029;-73
2022/12/09 06:49:05;;;;;;;42.38;17.85;;;4.50;99.90;;;;;;5019027;28;20060;-73
2022/12/09 06:51:33;;;;;;;34.78;16.27;;;4.50;99.90;;;;;;5023982;28;20091;-73
2022/12/09 06:53:59;;;;;;;33.97;16.33;;;4.60;99.90;;;;;;5026145;28;20333;-73
2022/12/09 06:56:25;;;;;;;37.60;17.08;;;4.60;99.90;;;;;;5024105;28;20029;-74
2022/12/09 06:58:51;;;;;;;37.50;16.42;;;4.60;99.90;;;;;;5024971;28;20032;-73
2022/12/09 07:01:24;;;;;;;30.45;14.43;;;4.60;99.90;;;;;;5028652;28;20028;-73
2022/12/09 07:03:52;;;;;;;28.10;14.80;;;4.60;99.90;;;;;;5015147;28;20193;-72
2022/12/09 07:06:24;;;;;;;29.80;13.70;;;4.50;99.90;;;;;;5026953;28;20026;-72
2022/12/09 07:08:50;;;;;;;31.35;14.93;;;4.40;99.90;;;;;;5039254;28;20027;-73
2022/12/09 07:11:16;;;;;;;24.05;12.13;;;4.30;99.90;;;;;;5028121;28;20113;-71
2022/12/09 07:13:43;;;;;;;27.63;12.85;;;4.40;99.90;;;;;;5029916;28;20033;-71
2022/12/09 07:16:09;;;;;;;25.42;12.75;;;4.30;99.90;;;;;;5028998;28;20523;-73
2022/12/09 07:18:38;;;;;;;30.58;13.35;;;4.40;99.90;;;;;;5026454;28;20037;-73
2022/12/09 07:21:13;;;;;;;30.60;14.38;;;4.40;99.90;;;;;;5026896;28;20047;-73
2022/12/09 07:23:39;;;;;;;35.35;15.05;;;4.50;99.90;;;;;;5027076;28;20033;-74
2022/12/09 07:26:05;;;;;;;23.77;12.70;;;4.50;99.90;;;;;;5024720;28;20068;-72
2022/12/09 07:28:39;;;;;;;26.95;12.48;;;4.50;99.90;;;;;;5029254;28;20032;-73
2022/12/09 07:31:25;;;;;;;23.40;12.18;;;4.40;99.90;;;;;;5027239;28;20346;-71
2022/12/09 07:33:52;;;;;;;25.73;12.05;;;4.40;99.90;;;;;;5045399;28;20020;-72
2022/12/09 07:36:19;;;;;;;23.58;11.48;;;4.50;99.90;;;;;;5030755;28;20026;-73
2022/12/09 07:38:45;;;;;;;32.67;12.65;;;4.40;99.90;;;;;;5027711;28;20072;-72
2022/12/09 07:41:16;;;;;;;25.23;13.18;;;4.50;99.90;;;;;;5023494;28;20056;-74
2022/12/09 07:43:44;;;;;;;34.83;14.63;;;4.50;99.90;;;;;;5028260;28;20025;-74
2022/12/09 07:46:10;;;;;;;29.77;14.55;;;4.50;99.90;;;;;;5026908;28;20088;-73
2022/12/09 07:48:36;;;;;;;35.30;15.70;;;4.50;99.90;;;;;;5007493;28;20103;-73
2022/12/09 07:51:03;;;;;;;31.33;15.95;;;4.50;99.90;;;;;;5028402;28;20538;-74
2022/12/09 07:53:30;;;;;;;36.08;16.00;;;4.50;99.90;;;;;;5025952;28;20051;-73
2022/12/09 07:56:05;;;;;;;34.88;15.95;;;4.50;99.90;;;;;;5029900;28;20029;-73
2022/12/09 07:58:31;;;;;;;20.52;10.40;;;4.50;99.90;;;;;;5031168;28;20053;-72
2022/12/09 08:00:56;;;;;;;20.33;10.45;;;4.50;99.90;;;;;;5026371;28;20459;-72
2022/12/09 08:03:22;;;;;;;22.00;10.85;;;4.60;99.90;;;;;;5025030;28;20033;-75
2022/12/09 08:05:49;;;;;;;30.02;13.50;;;4.60;99.90;;;;;;5028603;28;20032;-71
2022/12/09 08:08:15;;;;;;;21.00;11.00;;;4.60;99.90;;;;;;5025229;28;20035;-73
2022/12/09 08:10:45;;;;;;;21.95;11.55;;;4.70;99.90;;;;;;5024121;28;20017;-73
2022/12/09 08:13:11;;;;;;;18.42;10.07;;;4.70;99.90;;;;;;5038222;28;20099;-74
2022/12/09 08:15:37;;;;;;;17.83;9.90;;;4.80;99.90;;;;;;5024847;28;20025;-74
2022/12/09 08:18:03;;;;;;;20.63;9.63;;;4.80;99.90;;;;;;5026579;28;20025;-72
2022/12/09 08:20:29;;;;;;;26.48;10.57;;;4.90;99.90;;;;;;5027139;28;21322;-72
2022/12/09 08:22:55;;;;;;;26.30;10.80;;;4.90;99.90;;;;;;5026178;28;20087;-75
2022/12/09 08:25:21;;;;;;;27.38;12.80;;;4.90;99.90;;;;;;5025230;28;20477;-75
2022/12/09 08:27:46;;;;;;;24.85;12.77;;;5.00;99.90;;;;;;5028247;28;20021;-72
2022/12/09 08:30:12;;;;;;;30.02;14.32;;;5.10;99.90;;;;;;5022311;28;20044;-75
2022/12/09 08:32:40;;;;;;;30.33;16.13;;;5.20;99.90;;;;;;5023791;28;20049;-74
2022/12/09 08:35:13;;;;;;;34.42;15.40;;;5.10;99.90;;;;;;5028178;28;20044;-73
2022/12/09 08:37:40;;;;;;;32.88;15.55;;;5.10;99.90;;;;;;5025277;28;20104;-73
2022/12/09 08:40:09;;;;;;;40.85;17.35;;;5.20;99.90;;;;;;5025423;28;20027;-71
2022/12/09 08:42:36;;;;;;;28.30;15.05;;;5.20;99.90;;;;;;5028198;28;20040;-73
2022/12/09 08:45:04;;;;;;;29.73;15.60;;;5.20;99.90;;;;;;5025086;28;20133;-73
2022/12/09 08:47:30;;;;;;;38.20;15.77;;;5.30;99.90;;;;;;5043062;28;20052;-74
2022/12/09 08:49:57;;;;;;;29.98;15.95;;;5.40;99.90;;;;;;5029024;28;20115;-74
2022/12/09 08:52:22;;;;;;;29.23;14.68;;;5.50;99.90;;;;;;5024792;28;20036;-73
2022/12/09 08:54:51;;;;;;;30.42;15.70;;;5.50;99.90;;;;;;5026317;28;20034;-73
2022/12/09 08:57:22;;;;;;;30.08;15.50;;;5.60;99.90;;;;;;5027728;28;20158;-74
2022/12/09 08:59:48;;;;;;;28.10;14.45;;;5.60;99.90;;;;;;5026213;28;20443;-72
2022/12/09 09:02:13;;;;;;;30.85;14.65;;;5.60;99.90;;;;;;5024792;28;20114;-72
2022/12/09 09:04:39;;;;;;;27.13;14.75;;;5.50;99.90;;;;;;5023852;28;20048;-73
2022/12/09 09:07:07;;;;;;;31.45;14.10;;;5.50;99.90;;;;;;5025275;28;20033;-72
2022/12/09 09:09:33;;;;;;;26.83;14.00;;;5.60;99.90;;;;;;5027975;28;20370;-72
2022/12/09 09:12:01;;;;;;;28.95;13.60;;;5.60;99.90;;;;;;5027034;28;20025;-74
2022/12/09 09:14:26;;;;;;;27.67;14.18;;;5.60;99.90;;;;;;5025526;28;20715;-70
2022/12/09 09:16:52;;;;;;;30.30;17.30;;;5.60;99.90;;;;;;5024312;28;20117;-74
2022/12/09 09:19:21;;;;;;;24.60;13.65;;;5.70;99.90;;;;;;5023555;28;20030;-72
2022/12/09 09:21:47;;;;;;;24.45;12.60;;;5.60;99.90;;;;;;5021863;28;20068;-75
2022/12/09 09:24:20;;;;;;;34.40;14.77;;;5.70;99.90;;;;;;5024788;28;20013;-73
2022/12/09 09:26:47;;;;;;;31.13;14.45;;;5.70;99.90;;;;;;5024572;28;20319;-74
2022/12/09 09:29:15;;;;;;;35.20;15.60;;;5.70;99.90;;;;;;5024975;28;20040;-72
2022/12/09 09:31:47;;;;;;;40.10;15.25;;;5.80;99.90;;;;;;5023830;28;20025;-72
2022/12/09 09:34:13;;;;;;;31.65;15.93;;;5.80;99.90;;;;;;5024474;28;20021;-74
2022/12/09 09:36:41;;;;;;;28.35;14.23;;;5.90;99.90;;;;;;5023296;28;20336;-74
2022/12/09 09:39:07;;;;;;;25.80;13.95;;;5.90;99.90;;;;;;5025587;28;20033;-73
2022/12/09 09:41:40;;;;;;;25.10;13.48;;;5.90;99.90;;;;;;5024678;28;20037;-71
2022/12/09 09:44:40;;;;;;;30.65;16.48;;;5.90;99.90;;;;;;5027058;28;20025;-73
2022/12/09 09:47:40;;;;;;;32.50;14.70;;;5.80;99.90;;;;;;5020237;28;20021;-70
2022/12/09 09:50:27;;;;;;;32.15;15.20;;;5.80;99.90;;;;;;5024489;28;20017;-69
2022/12/09 09:52:54;;;;;;;32.72;15.77;;;5.90;99.90;;;;;;5025628;28;20116;-73
2022/12/09 09:55:48;;;;;;;29.98;15.27;;;5.90;99.90;;;;;;5041289;28;20069;-74
2022/12/09 09:58:45;;;;;;;32.33;14.32;;;6.00;99.90;;;;;;5026449;28;20029;-75
2022/12/09 10:01:17;;;;;;;30.42;15.55;;;6.00;99.90;;;;;;5018730;28;20047;-73
2022/12/09 10:04:10;;;;;;;32.08;15.88;;;5.90;99.90;;;;;;5027198;28;20065;-74
2022/12/09 10:06:57;;;;;;;32.47;16.10;;;5.90;99.90;;;;;;5022724;28;20132;-75
2022/12/09 10:09:40;;;;;;;32.60;15.88;;;6.00;99.90;;;;;;5021958;28;20022;-75
2022/12/09 10:12:15;;;;;;;33.25;16.25;;;6.00;99.90;;;;;;5024145;28;20059;-74
2022/12/09 10:14:45;;;;;;;37.17;17.20;;;6.00;99.90;;;;;;5020933;28;20045;-71
2022/12/09 10:17:14;;;;;;;30.95;16.80;;;6.10;99.90;;;;;;5024627;28;20037;-72
2022/12/09 10:19:45;;;;;;;31.92;14.80;;;6.20;99.90;;;;;;5023758;28;20029;-73
2022/12/09 10:22:20;;;;;;;32.55;16.73;;;6.20;99.90;;;;;;5026250;28;20588;-73
2022/12/09 10:24:55;;;;;;;31.75;15.15;;;6.30;99.90;;;;;;5023360;28;20120;-76
2022/12/09 10:27:39;;;;;;;35.20;15.20;;;6.40;99.90;;;;;;5025624;28;20113;-74
2022/12/09 10:30:08;;;;;;;29.70;15.27;;;6.30;99.90;;;;;;5025048;28;20018;-73
2022/12/09 10:32:36;;;;;;;31.70;15.02;;;6.20;99.90;;;;;;5028593;28;20510;-74
2022/12/09 10:35:13;;;;;;;29.15;14.32;;;6.10;99.90;;;;;;5027767;28;20100;-73
2022/12/09 10:37:39;;;;;;;22.38;12.30;;;6.10;99.90;;;;;;5026810;28;20037;-73
2022/12/09 10:40:11;;;;;;;30.95;13.25;;;5.90;99.90;;;;;;5027018;28;20034;-71
2022/12/09 10:45:41;;;;;;;19.85;12.07;;;5.80;99.90;;;;;;5028118;28;20037;-73
2022/12/09 10:48:38;;;;;;;28.73;12.60;;;5.80;99.90;;;;;;5028801;28;20075;-74
2022/12/09 10:51:16;;;;;;;32.85;12.40;;;5.80;99.90;;;;;;5021768;28;20120;-74
2022/12/09 10:53:47;;;;;;;26.02;13.07;;;5.80;99.90;;;;;;5033032;28;20049;-75
2022/12/09 10:56:28;;;;;;;28.48;12.95;;;5.70;99.90;;;;;;5030219;28;20416;-76
2022/12/09 10:59:28;;;;;;;25.65;13.15;;;5.80;99.90;;;;;;5032961;28;20029;-75
2022/12/09 11:01:55;;;;;;;27.13;14.48;;;5.80;99.90;;;;;;5036181;28;20029;-74
2022/12/09 11:04:23;;;;;;;25.50;12.98;;;5.80;99.90;;;;;;5030761;28;20030;-72
2022/12/09 11:06:56;;;;;;;25.25;14.88;;;5.80;99.90;;;;;;5028024;28;20034;-72
2022/12/09 11:09:30;;;;;;;29.40;15.02;;;5.80;99.90;;;;;;5030205;28;20540;-73
2022/12/09 11:11:56;;;;;;;32.08;14.98;;;5.80;99.90;;;;;;5027993;28;20037;-74
2022/12/09 11:14:27;;;;;;;31.05;15.20;;;5.90;99.90;;;;;;5030089;28;20090;-72
2022/12/09 11:17:14;;;;;;;27.10;13.90;;;6.10;99.90;;;;;;5030223;28;20013;-75
2022/12/09 11:19:40;;;;;;;28.98;14.07;;;6.10;99.90;;;;;;5028963;28;20108;-75
2022/12/09 11:22:23;;;;;;;29.30;13.68;;;6.20;99.90;;;;;;5041481;28;20063;-76
2022/12/09 11:24:54;;;;;;;28.30;14.88;;;6.20;99.90;;;;;;5030317;28;20084;-80
2022/12/09 11:27:22;;;;;;;31.52;14.25;;;6.20;99.90;;;;;;5029747;28;20030;-79
2022/12/09 11:30:03;;;;;;;25.63;12.48;;;6.20;99.90;;;;;;5033328;28;20041;-74
2022/12/09 11:32:31;;;;;;;22.48;12.32;;;6.20;99.90;;;;;;5029931;28;20032;-73
2022/12/09 11:34:57;;;;;;;21.88;12.43;;;6.20;99.90;;;;;;5029426;28;20033;-76
2022/12/09 11:37:23;;;;;;;26.42;12.77;;;6.20;99.90;;;;;;5031322;28;20088;-73
2022/12/09 11:39:52;;;;;;;23.67;11.52;;;6.20;99.90;;;;;;5028738;28;20049;-74
2022/12/09 11:42:21;;;;;;;27.65;11.05;;;6.20;99.90;;;;;;5026296;28;20037;-74
2022/12/09 11:44:52;;;;;;;26.77;11.48;;;6.20;99.90;;;;;;5027570;28;20026;-73
2022/12/09 11:47:45;;;;;;;28.45;11.82;;;6.20;99.90;;;;;;5024296;28;20083;-74
2022/12/09 11:50:17;;;;;;;23.83;12.98;;;6.20;99.90;;;;;;5031001;28;20175;-72
2022/12/09 11:52:43;;;;;;;26.63;12.68;;;6.10;99.90;;;;;;5040162;28;20025;-73
2022/12/09 11:55:12;;;;;;;23.10;12.65;;;6.20;99.90;;;;;;5039791;28;20032;-74
2022/12/09 11:57:52;;;;;;;32.22;13.07;;;6.20;99.90;;;;;;5033846;28;20037;-74
2022/12/09 12:00:20;;;;;;;25.02;12.82;;;6.20;99.90;;;;;;5033773;28;20117;-74
2022/12/09 12:03:09;;;;;;;21.88;12.15;;;6.20;99.90;;;;;;5023260;28;20025;-74
2022/12/09 12:05:42;;;;;;;26.70;12.45;;;6.20;99.90;;;;;;5032106;28;20120;-74
2022/12/09 12:08:29;;;;;;;21.05;12.20;;;6.30;99.90;;;;;;5043520;28;20030;-75
2022/12/09 12:11:05;;;;;;;24.27;12.25;;;6.20;99.90;;;;;;5032018;28;20033;-75
2022/12/09 12:13:36;;;;;;;27.95;12.90;;;6.20;99.90;;;;;;5032347;28;20105;-74
2022/12/09 12:16:11;;;;;;;25.67;11.95;;;6.20;99.90;;;;;;5034260;28;20021;-74
2022/12/09 12:19:24;;;;;;;27.73;13.48;;;6.30;99.90;;;;;;5023967;28;20109;-75
2022/12/09 12:22:28;;;;;;;26.77;13.55;;;6.20;99.90;;;;;;5026318;28;20044;-74
2022/12/09 12:25:21;;;;;;;32.75;13.80;;;6.20;99.90;;;;;;5032282;28;20025;-75
2022/12/09 12:28:02;;;;;;;31.70;13.88;;;6.20;99.90;;;;;;5031271;28;20040;-73
2022/12/09 12:30:55;;;;;;;28.25;14.27;;;6.00;99.90;;;;;;5019851;28;20136;-74
2022/12/09 12:33:38;;;;;;;31.60;14.13;;;5.90;99.90;;;;;;5025434;28;20343;-77
2022/12/09 12:36:23;;;;;;;29.17;13.27;;;5.90;99.90;;;;;;5034971;28;20476;-74
2022/12/09 12:39:03;;;;;;;31.35;15.13;;;5.70;99.90;;;;;;5038672;28;20149;-75
2022/12/09 12:41:43;;;;;;;29.70;14.98;;;5.70;99.90;;;;;;5040537;28;20033;-75
2022/12/09 12:47:41;;;;;;;28.43;14.13;;;5.90;99.90;;;;;;5036886;28;20211;-77
2022/12/09 12:50:37;;;;;;;28.15;13.52;;;5.80;99.90;;;;;;5032513;28;20025;-77
2022/12/09 12:53:05;;;;;;;28.80;14.27;;;5.80;99.90;;;;;;5030291;28;20029;-69
2022/12/09 12:55:54;;;;;;;31.38;13.93;;;5.90;99.90;;;;;;5030627;28;20036;-74
2022/12/09 12:58:29;;;;;;;25.92;12.30;;;5.90;99.90;;;;;;5032483;28;20018;-74
2022/12/09 13:01:12;;;;;;;33.17;13.55;;;5.80;99.90;;;;;;5032328;28;20101;-74
2022/12/09 13:04:00;;;;;;;25.15;13.13;;;5.80;99.90;;;;;;5030755;28;20098;-74